Map

Track Data

SID SEASON NUMBER BASIN SUBBASIN NAME ISO_TIME NATURE LAT LON WMO_WIND WMO_PRES WMO_AGENCY TRACK_TYPE DIST2LAND LANDFALL IFLAG USA_AGENCY USA_ATCF_ID USA_LAT USA_LON USA_RECORD USA_STATUS USA_WIND USA_PRES USA_SSHS USA_R34_NE USA_R34_SE USA_R34_SW USA_R34_NW USA_R50_NE USA_R50_SE USA_R50_SW USA_R50_NW USA_R64_NE USA_R64_SE USA_R64_SW USA_R64_NW USA_POCI USA_ROCI USA_RMW USA_EYE TOKYO_LAT TOKYO_LON TOKYO_GRADE TOKYO_WIND TOKYO_PRES TOKYO_R50_DIR TOKYO_R50_LONG TOKYO_R50_SHORT TOKYO_R30_DIR TOKYO_R30_LONG TOKYO_R30_SHORT TOKYO_LAND CMA_LAT CMA_LON CMA_CAT CMA_WIND CMA_PRES HKO_LAT HKO_LON HKO_CAT HKO_WIND HKO_PRES NEWDELHI_LAT NEWDELHI_LON NEWDELHI_GRADE NEWDELHI_WIND NEWDELHI_PRES NEWDELHI_CI NEWDELHI_DP NEWDELHI_POCI REUNION_LAT REUNION_LON REUNION_TYPE REUNION_WIND REUNION_PRES REUNION_TNUM REUNION_CI REUNION_RMW REUNION_R34_NE REUNION_R34_SE REUNION_R34_SW REUNION_R34_NW REUNION_R50_NE REUNION_R50_SE REUNION_R50_SW REUNION_R50_NW REUNION_R64_NE REUNION_R64_SE REUNION_R64_SW REUNION_R64_NW BOM_LAT BOM_LON BOM_TYPE BOM_WIND BOM_PRES BOM_TNUM BOM_CI BOM_RMW BOM_R34_NE BOM_R34_SE BOM_R34_SW BOM_R34_NW BOM_R50_NE BOM_R50_SE BOM_R50_SW BOM_R50_NW BOM_R64_NE BOM_R64_SE BOM_R64_SW BOM_R64_NW BOM_ROCI BOM_POCI BOM_EYE BOM_POS_METHOD BOM_PRES_METHOD NADI_LAT NADI_LON NADI_CAT NADI_WIND NADI_PRES WELLINGTON_LAT WELLINGTON_LON WELLINGTON_WIND WELLINGTON_PRES DS824_LAT DS824_LON DS824_STAGE DS824_WIND DS824_PRES TD9636_LAT TD9636_LON TD9636_STAGE TD9636_WIND TD9636_PRES TD9635_LAT TD9635_LON TD9635_WIND TD9635_PRES TD9635_ROCI NEUMANN_LAT NEUMANN_LON NEUMANN_CLASS NEUMANN_WIND NEUMANN_PRES MLC_LAT MLC_LON MLC_CLASS MLC_WIND MLC_PRES USA_GUST BOM_GUST BOM_GUST_PER REUNION_GUST REUNION_GUST_PER USA_SEAHGT USA_SEARAD_NE USA_SEARAD_SE USA_SEARAD_SW USA_SEARAD_NW STORM_SPEED STORM_DIR
1956019S13059 1956 8 SI MM NOT_NAMED 1956-01-19 06:00:00 TS -13.4000 58.7500 reunion main 758 758 O____O___OO___ jtwc_sh SH121956 -13.5000 59.0000 -1 -13.1000 58.0000 99 9.90000 -13.5000 59.0000 TC 25 -13.5000 59.0000 7 3 93
1956019S13059 1956 8 SI MM NOT_NAMED 1956-01-19 09:00:00 TS -13.4093 58.9202 main 760 760 P____P___PP___ SH121956 -13.4875 59.1500 -1 -13.1291 58.2247 99 -13.4875 59.1500 TC 25 -13.5329 59.1561 7 3 95
1956019S13059 1956 8 SI MM NOT_NAMED 1956-01-19 12:00:00 TS -13.4307 59.0910 main 764 755 O____P___OP___ jtwc_sh SH121956 -13.5000 59.3000 -1 -13.1601 58.4542 99 -13.5000 59.3000 TC 25 -13.5626 59.3099 7 3 100
1956019S13059 1956 8 SI MM NOT_NAMED 1956-01-19 15:00:00 TS -13.4703 59.2630 main 757 757 P____P___PP___ SH121956 -13.5500 59.4500 -1 -13.1951 58.6932 99 -13.5500 59.4500 TC 30 -13.5860 59.4586 7 3 103
1956019S13059 1956 8 SI MM NOT_NAMED 1956-01-19 18:00:00 TS -13.5090 59.4366 main 760 760 O____P___OO___ jtwc_sh SH121956 -13.6000 59.6000 -1 -13.2360 58.9466 99 -13.6000 59.6000 TC 35 -13.6000 59.6000 2 3 99
1956019S13059 1956 8 SI MM NOT_NAMED 1956-01-19 21:00:00 TS -13.5224 59.6133 main 765 765 P____P___PP___ SH121956 -13.6000 59.7500 -1 -13.2850 59.2191 99 -13.6000 59.7500 TC 35 -13.6046 59.7339 2 4 95
1956019S13059 1956 8 SI MM NOT_NAMED 1956-01-20 00:00:00 TS -13.5391 59.7965 main 771 764 O____P___OP___ jtwc_sh SH121956 -13.6000 59.9000 -1 -13.3440 59.5156 99 -13.6000 59.9000 TC 35 -13.6123 59.8703 2 4 99
1956019S13059 1956 8 SI MM NOT_NAMED 1956-01-20 03:00:00 TS -13.5810 59.9831 main 767 767 P____P___PP___ SH121956 -13.6350 60.0350 -1 -13.4150 59.8409 99 -13.6350 60.0350 TC 35 -13.6389 60.0215 2 4 106
1956019S13059 1956 8 SI MM NOT_NAMED 1956-01-20 06:00:00 TS -13.6500 60.2000 reunion main 774 763 O____O___OO___ jtwc_sh SH121956 -13.7000 60.2000 -1 -13.5000 60.2000 99 9.90000 -13.7000 60.2000 TC 35 -13.7000 60.2000 2 5 109
1956019S13059 1956 8 SI MM NOT_NAMED 1956-01-20 09:00:00 TS -13.7413 60.4725 main 775 763 P____P___PP___ SH121956 -13.7775 60.4350 -1 -13.6000 60.5947 99 -13.7775 60.4350 TC 35 -13.8101 60.4252 2 6 111
1956019S13059 1956 8 SI MM NOT_NAMED 1956-01-20 12:00:00 TS -13.8670 60.7730 main 768 762 O____P___OP___ jtwc_sh SH121956 -13.9000 60.7000 -1 -13.7128 61.0145 99 -13.9000 60.7000 TC 35 -13.9551 60.6774 2 7 117
1956019S13059 1956 8 SI MM NOT_NAMED 1956-01-20 15:00:00 TS -14.0320 61.0717 main 772 762 P____P___PP___ SH121956 -14.0850 60.9500 -1 -13.8356 61.4460 99 -14.0850 60.9500 TC 35 -14.1226 60.9409 2 7 121
1956019S13059 1956 8 SI MM NOT_NAMED 1956-01-20 18:00:00 TS -14.2163 61.3689 main 768 758 O____P___OO___ jtwc_sh SH121956 -14.3000 61.2000 -1 -13.9653 61.8755 99 -14.3000 61.2000 TC 35 -14.3000 61.2000 2 7 123
1956019S13059 1956 8 SI MM NOT_NAMED 1956-01-20 21:00:00 TS -14.3996 61.6622 main 766 756 P____P___PP___ SH121956 -14.5075 61.4575 -1 -14.0993 62.2894 99 -14.5075 61.4575 TC 35 -14.4840 61.4443 2 7 123
1956019S13059 1956 8 SI MM NOT_NAMED 1956-01-21 00:00:00 TS -14.5768 61.9385 main 759 759 O____P___OP___ jtwc_sh SH121956 -14.7000 61.7000 -1 -14.2348 62.6740 99 -14.7000 61.7000 TC 35 -14.6725 61.6799 2 6 124
1956019S13059 1956 8 SI MM NOT_NAMED 1956-01-21 03:00:00 TS -14.7372 62.1865 main 770 761 P____P___PP___ SH121956 -14.8650 61.9150 -1 -14.3692 63.0154 99 -14.8650 61.9150 TC 50 -14.8497 61.9005 2 5 124
1956019S13059 1956 8 SI MM NOT_NAMED 1956-01-21 06:00:00 TS -14.8750 62.4000 reunion main 766 764 O____O___OO___ jtwc_sh SH121956 -15.0000 62.1000 -1 -14.5000 63.3000 99 9.90000 -15.0000 62.1000 TC 65 -15.0000 62.1000 4 5 123
1956019S13059 1956 8 SI MM NOT_NAMED 1956-01-21 09:00:00 TS -14.9891 62.5865 main 771 770 P____P___PP___ SH121956 -15.1150 62.2575 -1 -14.6350 63.5468 99 -15.1150 62.2575 TC 65 -15.0915 62.2840 4 4 122
1956019S13059 1956 8 SI MM NOT_NAMED 1956-01-21 12:00:00 TS -15.0820 62.7479 main 770 770 O____P___OP___ jtwc_sh SH121956 -15.2000 62.4000 -1 -14.7706 63.7464 99 -15.2000 62.4000 TC 65 -15.1574 62.4453 4 3 119
1956019S13059 1956 8 SI MM NOT_NAMED 1956-01-21 15:00:00 TS -15.1519 62.8950 main 777 777 P____P___PP___ SH121956 -15.2425 62.5501 -1 -14.9031 63.8960 99 -15.2425 62.5501 TC 65 -15.2196 62.5839 4 3 120
1956019S13059 1956 8 SI MM NOT_NAMED 1956-01-21 18:00:00 TS -15.2323 63.0233 main 784 776 O____P___OO___ jtwc_sh SH121956 -15.3000 62.7000 -1 -15.0293 63.9931 99 -15.3000 62.7000 TC 65 -15.3000 62.7000 4 3 130
1956019S13059 1956 8 SI MM NOT_NAMED 1956-01-21 21:00:00 TS -15.3661 63.1572 main 784 777 P____P___PP___ SH121956 -15.4350 62.8724 -1 -15.1456 64.0347 99 -15.4350 62.8724 TC 65 -15.4486 62.8492 4 4 143
1956019S13059 1956 8 SI MM NOT_NAMED 1956-01-22 00:00:00 TS -15.5158 63.2470 main 777 770 O____P___OP___ jtwc_sh SH121956 -15.6000 63.0000 -1 -15.2485 64.0182 99 -15.6000 63.0000 TC 65 -15.6148 62.9698 4 3 159
1956019S13059 1956 8 SI MM NOT_NAMED 1956-01-22 03:00:00 TS -15.6595 63.2729 main 770 754 P____P___PP___ SH121956 -15.7649 63.0600 -1 -15.3345 63.9409 99 -15.7649 63.0600 TC 65 -15.7736 63.0305 4 3 189
1956019S13059 1956 8 SI MM NOT_NAMED 1956-01-22 06:00:00 TS -15.7750 63.2000 reunion main 754 738 O____O___OO___ jtwc_sh SH121956 -15.9000 63.0000 -1 -15.4000 63.8000 99 9.90000 -15.9000 63.0000 TC 65 -15.9000 63.0000 4 3 235
1956019S13059 1956 8 SI MM NOT_NAMED 1956-01-22 09:00:00 TS -15.8366 63.0107 main 738 715 P____P___PP___ SH121956 -15.9726 62.7875 -1 -15.4321 63.6243 99 -15.9726 62.7875 TC 65 -15.9692 62.8436 4 4 259
1956019S13059 1956 8 SI MM NOT_NAMED 1956-01-22 12:00:00 TS -15.8614 62.7448 main 707 691 O____P___OP___ jtwc_sh SH121956 -16.0000 62.5000 -1 -15.4428 63.3814 99 -16.0000 62.5000 TC 65 -16.0027 62.5976 4 5 267
1956019S13059 1956 8 SI MM NOT_NAMED 1956-01-22 15:00:00 TS -15.8653 62.4707 main 691 668 P____P___PP___ SH121956 -16.0075 62.2500 -1 -15.4365 63.0801 99 -16.0075 62.2500 TC 65 -16.0099 62.3029 4 5 271
1956019S13059 1956 8 SI MM NOT_NAMED 1956-01-22 18:00:00 TS -15.8544 62.1822 main 668 653 O____P___OO___ jtwc_sh SH121956 -16.0000 62.0000 -1 -15.4174 62.7290 99 -16.0000 62.0000 TC 65 -16.0000 62.0000 4 5 272
1956019S13059 1956 8 SI MM NOT_NAMED 1956-01-22 21:00:00 TS -15.8485 61.9038 main 654 633 P____P___PP___ SH121956 -16.0075 61.7500 -1 -15.3899 62.3368 99 -16.0075 61.7500 TC 65 -15.9890 61.7784 4 5 272
1956019S13059 1956 8 SI MM NOT_NAMED 1956-01-23 00:00:00 TS -15.8307 61.6162 main 633 613 O____P___OP___ jtwc_sh SH121956 -16.0000 61.5000 -1 -15.3582 61.9122 99 -16.0000 61.5000 TC 65 -15.9644 61.5524 4 6 276
1956019S13059 1956 8 SI MM NOT_NAMED 1956-01-23 03:00:00 TS -15.7936 61.3235 main 613 594 P____P___PP___ SH121956 -15.9574 61.2650 -1 -15.3267 61.4638 99 -15.9574 61.2650 TC 65 -15.9327 61.3003 4 6 278
1956019S13059 1956 8 SI MM NOT_NAMED 1956-01-23 06:00:00 TS -15.7500 61.0000 reunion main 603 585 O____O___OO___ jtwc_sh SH121956 -15.9000 61.0000 -1 -15.3000 61.0000 99 9.90000 -15.9000 61.0000 TC 65 -15.9000 61.0000 4 7 277
1956019S13059 1956 8 SI MM NOT_NAMED 1956-01-23 09:00:00 TS -15.7094 60.6449 main 580 563 P____P___PP___ SH121956 -15.8424 60.6875 -1 -15.2821 60.5632 99 -15.8424 60.6875 TC 65 -15.8709 60.6415 4 7 276
1956019S13059 1956 8 SI MM NOT_NAMED 1956-01-23 12:00:00 TS -15.6767 60.2339 main 558 540 O____P___OP___ jtwc_sh SH121956 -15.8000 60.3000 -1 -15.2646 60.1031 99 -15.8000 60.3000 TC 65 -15.8423 60.2323 4 8 273
1956019S13059 1956 8 SI MM NOT_NAMED 1956-01-23 15:00:00 TS -15.6631 59.7666 main 540 520 P____P___PP___ SH121956 -15.7925 59.8300 -1 -15.2499 59.6241 99 -15.7925 59.8300 TC 65 -15.8176 59.7821 4 9 271
1956019S13059 1956 8 SI MM NOT_NAMED 1956-01-23 18:00:00 TS -15.6601 59.2577 main 520 505 O____P___OO___ jtwc_sh SH121956 -15.8000 59.3000 -1 -15.2403 59.1308 99 -15.8000 59.3000 TC 65 -15.8000 59.3000 4 10 270
1956019S13059 1956 8 SI MM NOT_NAMED 1956-01-23 21:00:00 TS -15.6577 58.7308 main 503 495 P____P___PP___ SH121956 -15.8000 58.7500 -1 -15.2380 58.6274 99 -15.8000 58.7500 TC 65 -15.7929 58.7957 4 10 270
1956019S13059 1956 8 SI MM NOT_NAMED 1956-01-24 00:00:00 TS -15.6596 58.1958 main 495 492 O____P___OP___ jtwc_sh SH121956 -15.8000 58.2000 -1 -15.2456 58.1183 99 -15.8000 58.2000 TC 65 -15.7926 58.2651 4 10 270
1956019S13059 1956 8 SI MM NOT_NAMED 1956-01-24 03:00:00 TS -15.6653 57.6799 main 492 492 P____P___PP___ SH121956 -15.7998 57.6925 -1 -15.2654 57.6077 99 -15.7998 57.6925 TC 65 -15.7960 57.7269 4 10 269
1956019S13059 1956 8 SI MM NOT_NAMED 1956-01-24 06:00:00 TS -15.6750 57.1750 reunion main 493 493 O____O___OO___ jtwc_sh SH121956 -15.8000 57.2000 -1 -15.3000 57.1000 99 9.90000 -15.8000 57.2000 TC 65 -15.8000 57.2000 4 10 269
1956019S13059 1956 8 SI MM NOT_NAMED 1956-01-24 09:00:00 TS -15.6839 56.6813 main 499 499 P____P___PP___ SH121956 -15.7999 56.6925 -1 -15.3442 56.6257 99 -15.7999 56.6925 TC 65 -15.7913 56.7146 4 9 269
1956019S13059 1956 8 SI MM NOT_NAMED 1956-01-24 12:00:00 TS -15.6966 56.1988 main 511 511 O____P___OP___ jtwc_sh SH121956 -15.8000 56.2000 -1 -15.4022 56.1529 99 -15.8000 56.2000 TC 65 -15.7843 56.2423 4 9 268
1956019S13059 1956 8 SI MM NOT_NAMED 1956-01-24 15:00:00 TS -15.7108 55.7382 main 527 515 P____P___PP___ SH121956 -15.7923 55.7499 -1 -15.4734 55.6790 99 -15.7923 55.7499 TC 65 -15.7851 55.7739 4 9 267
1956019S13059 1956 8 SI MM NOT_NAMED 1956-01-24 18:00:00 TS -15.7392 55.2753 main 515 462 O____P___OO___ jtwc_sh SH121956 -15.8000 55.3000 -1 -15.5569 55.2014 99 -15.8000 55.3000 TC 65 -15.8000 55.3000 4 9 265
1956019S13059 1956 8 SI MM NOT_NAMED 1956-01-24 21:00:00 TS -15.7889 54.7919 main 462 409 P____P___PP___ SH121956 -15.8424 54.8075 -1 -15.6521 54.7173 99 -15.8424 54.8075 TC 65 -15.8186 54.8353 4 10 263
1956019S13059 1956 8 SI MM NOT_NAMED 1956-01-25 00:00:00 TS -15.8530 54.2959 main 410 357 O____P___OP___ jtwc_sh SH121956 -15.9000 54.3000 -1 -15.7582 54.2241 99 -15.9000 54.3000 TC 65 -15.8538 54.3594 4 10 262
1956019S13059 1956 8 SI MM NOT_NAMED 1956-01-25 03:00:00 TS -15.9178 53.8045 main 357 307 P____P___PP___ SH121956 -15.9422 53.8224 -1 -15.8744 53.7193 99 -15.9422 53.8224 TC 65 -15.9122 53.8538 4 10 261
1956019S13059 1956 8 SI MM NOT_NAMED 1956-01-25 06:00:00 TS -16.0000 53.2750 reunion main 307 248 O____O___OO___ jtwc_sh SH121956 -16.0000 53.3000 -1 -16.0000 53.2000 99 9.90000 -16.0000 53.3000 TC 65 -16.0000 53.3000 4 11 261
1956019S13059 1956 8 SI MM NOT_NAMED 1956-01-25 09:00:00 TS -16.0951 52.6742 main 248 193 P____P___PP___ SH121956 -16.0774 52.6798 -1 -16.1162 52.6739 99 -16.0774 52.6798 TC 65 -16.1094 52.6631 4 12 259
1956019S13059 1956 8 SI MM NOT_NAMED 1956-01-25 12:00:00 TS -16.2224 52.0287 main 183 135 O____P___OP___ jtwc_sh SH121956 -16.2000 52.0000 -1 -16.2418 52.1351 99 -16.2000 52.0000 TC 65 -16.2480 51.9799 4 13 257
1956019S13059 1956 8 SI MM NOT_NAMED 1956-01-25 15:00:00 TS -16.3861 51.3624 main 135 85 P____P___PP___ SH121956 -16.3775 51.2925 -1 -16.3770 51.5829 99 -16.3775 51.2925 TC 65 -16.4125 51.2817 4 13 254
1956019S13059 1956 8 SI MM NOT_NAMED 1956-01-25 18:00:00 TS -16.5805 50.7042 main 85 31 O____P___OO___ jtwc_sh SH121956 -16.6000 50.6000 -1 -16.5219 51.0168 99 -16.6000 50.6000 TC 65 -16.6000 50.6000 4 13 251
1956019S13059 1956 8 SI MM NOT_NAMED 1956-01-25 21:00:00 TS -16.7956 50.0971 main 31 0 P____P___PP___ SH121956 -16.8497 49.9849 -1 -16.6765 50.4362 99 -16.8497 49.9849 TC 50 -16.8066 49.9824 4 12 249
1956019S13059 1956 8 SI MM NOT_NAMED 1956-01-26 00:00:00 TS -17.0187 49.5063 main 0 0 O____P___OP___ jtwc_sh SH121956 -17.1000 49.4000 -1 -16.8410 49.8403 99 -17.1000 49.4000 TC 35 -17.0338 49.3848 4 12 249
1956019S13059 1956 8 SI MM NOT_NAMED 1956-01-26 03:00:00 TS -17.2248 48.9057 main 0 0 P____P___PP___ SH121956 -17.3073 48.7998 -1 -17.0155 49.2285 99 -17.3073 48.7998 TC 35 -17.2691 48.7948 4 12 251
1956019S13059 1956 8 SI MM NOT_NAMED 1956-01-26 06:00:00 TS -17.4250 48.3000 reunion main 0 0 O____O___OO___ jtwc_sh SH121956 -17.5000 48.2000 -1 -17.2000 48.6000 99 9.90000 -17.5000 48.2000 TC 35 -17.5000 48.2000 2 12 251
1956019S13059 1956 8 SI MM NOT_NAMED 1956-01-26 09:00:00 TS -17.6240 47.6723 main 0 0 P____P___PP___ SH121956 -17.6997 47.6073 -1 -17.3858 47.8927 99 -17.6997 47.6073 TC 35 -17.7108 47.5818 2 13 252
1956019S13059 1956 8 SI MM NOT_NAMED 1956-01-26 12:00:00 TS -17.8239 47.0289 main 0 0 O____P___OP___ jtwc_sh SH121956 -17.9000 47.0000 -1 -17.5815 47.1585 99 -17.9000 47.0000 TC 35 -17.9143 46.9570 2 13 252
1956019S13059 1956 8 SI MM NOT_NAMED 1956-01-26 15:00:00 TS -18.0241 46.3605 main 0 0 P____P___PP___ SH121956 -18.0999 46.3499 -1 -17.7857 46.4134 99 -18.0999 46.3499 TC 35 -18.1107 46.3287 2 13 252
1956019S13059 1956 8 SI MM NOT_NAMED 1956-01-26 18:00:00 TS -18.2243 45.6934 main 0 0 O____P___OO___ jtwc_sh SH121956 -18.3000 45.7000 -1 -17.9971 45.6738 99 -18.3000 45.7000 TC 35 -18.3000 45.7000 2 13 252
1956019S13059 1956 8 SI MM NOT_NAMED 1956-01-26 21:00:00 TS -18.4269 45.0475 main 0 0 P____P___PP___ SH121956 -18.5072 45.0999 -1 -18.2150 44.9560 99 -18.5072 45.0999 TC 35 -18.4783 45.0342 2 13 252
1956019S13059 1956 8 SI MM NOT_NAMED 1956-01-27 00:00:00 TS -18.6222 44.4129 main 0 0 O____P___OP___ jtwc_sh SH121956 -18.7000 44.5000 -1 -18.4383 44.2767 99 -18.7000 44.5000 TC 35 -18.6504 44.3748 2 13 253
1956019S13059 1956 8 SI MM NOT_NAMED 1956-01-27 03:00:00 TS -18.7973 43.7650 main 42 42 P____P___PP___ SH121956 -18.8501 43.8273 -1 -18.6668 43.6525 99 -18.8501 43.8273 TC 35 -18.8222 43.7530 2 12 253
1956019S13059 1956 8 SI MM NOT_NAMED 1956-01-27 06:00:00 TS -18.9750 43.1750 reunion main 105 105 O____O___OO___ jtwc_sh SH121956 -19.0000 43.2000 -1 -18.9000 43.1000 99 9.90000 -19.0000 43.2000 TC 35 -19.0000 43.2000 2 11 250
1956019S13059 1956 8 SI MM NOT_NAMED 1956-01-27 09:00:00 TS -19.1742 42.6920 main 157 157 P____P___PP___ SH121956 -19.1923 42.6975 -1 -19.1367 42.6328 99 -19.1923 42.6975 TC 35 -19.1756 42.7403 2 9 244
1956019S13059 1956 8 SI MM NOT_NAMED 1956-01-27 12:00:00 TS -19.3856 42.2956 main 202 202 O____P___OP___ jtwc_sh SH121956 -19.4000 42.3000 -1 -19.3813 42.2309 99 -19.4000 42.3000 TC 35 -19.3613 42.3517 2 8 239
1956019S13059 1956 8 SI MM NOT_NAMED 1956-01-27 15:00:00 TS -19.5920 41.9677 main 237 237 P____P___PP___ SH121956 -19.5848 41.9847 -1 -19.6318 41.8890 99 -19.5848 41.9847 TC 35 -19.5665 42.0122 2 7 233
1956019S13059 1956 8 SI MM NOT_NAMED 1956-01-27 18:00:00 TS -19.8216 41.6755 main 255 255 O____P___OO___ jtwc_sh SH121956 -19.8000 41.7000 -1 -19.8863 41.6020 99 -19.8000 41.7000 TC 35 -19.8000 41.7000 2 8 229
1956019S13059 1956 8 SI MM NOT_NAMED 1956-01-27 21:00:00 TS -20.0980 41.3480 main 271 265 P____P___PP___ SH121956 -20.0851 41.3426 -1 -20.1427 41.3648 99 -20.0851 41.3426 TC 35 -20.0794 41.3423 2 8 226
1956019S13059 1956 8 SI MM NOT_NAMED 1956-01-28 00:00:00 TS -20.3959 41.0457 main 282 278 O____P___OP___ jtwc_sh SH121956 -20.4000 41.0000 -1 -20.3986 41.1721 99 -20.4000 41.0000 TC 35 -20.3850 41.0106 2 8 221
1956019S13059 1956 8 SI MM NOT_NAMED 1956-01-28 03:00:00 TS -20.6912 40.7919 main 290 290 P____P___PP___ SH121956 -20.7075 40.7125 -1 -20.6518 41.0189 99 -20.7075 40.7125 TC 35 -20.6982 40.7236 2 7 216
1956019S13059 1956 8 SI MM NOT_NAMED 1956-01-28 06:00:00 TS -20.9750 40.6000 reunion main 300 300 O____O___OO___ jtwc_sh SH121956 -21.0000 40.5000 -1 -20.9000 40.9000 99 9.90000 -21.0000 40.5000 TC 35 -21.0000 40.5000 2 6 210
1956019S13059 1956 8 SI MM NOT_NAMED 1956-01-28 09:00:00 TS -21.2196 40.4633 main 300 300 P____P___PP___ SH121956 -21.2574 40.3699 -1 -21.0954 40.7659 99 -21.2574 40.3699 TC 35 -21.2681 40.3476 2 5 203
1956019S13059 1956 8 SI MM NOT_NAMED 1956-01-28 12:00:00 TS -21.4511 40.3830 main 299 296 O____P___OP___ jtwc_sh SH121956 -21.5000 40.3000 -1 -21.2821 40.6726 99 -21.5000 40.3000 TC 35 -21.5221 40.2593 2 5 196
1956019S13059 1956 8 SI MM NOT_NAMED 1956-01-28 15:00:00 TS -21.6872 40.3254 main 304 300 P____P___PP___ SH121956 -21.7575 40.2350 -1 -21.4688 40.6152 99 -21.7575 40.2350 TC 35 -21.7651 40.2165 2 5 190
1956019S13059 1956 8 SI MM NOT_NAMED 1956-01-28 18:00:00 TS -21.9160 40.2973 main 300 298 O____P___OO___ jtwc_sh SH121956 -22.0000 40.2000 -1 -21.6639 40.5891 99 -22.0000 40.2000 TC 35 -22.0000 40.2000 2 4 186
1956019S13059 1956 8 SI MM NOT_NAMED 1956-01-28 21:00:00 TS -22.1199 40.2911 main 298 298 P____P___PP___ SH121956 -22.2000 40.1925 -1 -21.8761 40.5894 99 -22.2000 40.1925 TC 35 -22.2037 40.1902 2 4 0
1956019S13059 1956 8 SI MM NOT_NAMED 1956-01-29 00:00:00 TS -22.3297 40.3026 main 298 298 O____P___OP___ jtwc_sh SH121956 -22.4000 40.2000 -1 -22.1138 40.6111 99 -22.4000 40.2000 TC 35 -22.4050 40.1994 2 4 177
1956019S13059 1956 8 SI MM NOT_NAMED 1956-01-29 03:00:00 TS -22.5636 40.3184 main 299 299 P____P___PP___ SH121956 -22.6200 40.2074 -1 -22.3856 40.6496 99 -22.6200 40.2074 TC 35 -22.6287 40.2089 2 5 179
1956019S13059 1956 8 SI MM NOT_NAMED 1956-01-29 06:00:00 TS -22.8500 40.3250 reunion main 302 302 O____O___OO___ jtwc_sh SH121956 -22.9000 40.2000 -1 -22.7000 40.7000 99 9.90000 -22.9000 40.2000 TC 35 -22.9000 40.2000 2 7 182
1956019S13059 1956 8 SI MM NOT_NAMED 1956-01-29 09:00:00 TS -23.2346 40.3100 main 313 313 P____P___PP___ SH121956 -23.2775 40.1650 -1 -23.1299 40.7514 99 -23.2775 40.1650 TC 35 -23.2537 40.1587 2 8 183
1956019S13059 1956 8 SI MM NOT_NAMED 1956-01-29 12:00:00 TS -23.6657 40.2791 main 332 332 O____P___OP___ jtwc_sh SH121956 -23.7000 40.1000 -1 -23.6079 40.8217 99 -23.7000 40.1000 TC 35 -23.6550 40.0949 2 9 184
1956019S13059 1956 8 SI MM NOT_NAMED 1956-01-29 15:00:00 TS -24.1025 40.2322 main 348 348 P____P___PP___ SH121956 -24.1075 40.0075 -1 -24.1164 40.9050 99 -24.1075 40.0075 TC 35 -24.0787 40.0086 2 9 186
1956019S13059 1956 8 SI MM NOT_NAMED 1956-01-29 18:00:00 TS -24.5345 40.1738 main 356 356 O____P___OO___ jtwc_sh SH121956 -24.5000 39.9000 -1 -24.6379 40.9952 99 -24.5000 39.9000 TC 35 -24.5000 39.9000 2 8 186
1956019S13059 1956 8 SI MM NOT_NAMED 1956-01-29 21:00:00 TS -24.9290 40.1297 main 374 374 P____P___PP___ SH121956 -24.8500 39.8148 -1 -25.1546 41.0862 99 -24.8500 39.8148 TC 35 -24.8616 39.8030 2 8 187
1956019S13059 1956 8 SI MM NOT_NAMED 1956-01-30 00:00:00 TS -25.3171 40.0631 main 380 380 O____P___OP___ jtwc_sh SH121956 -25.2000 39.7000 -1 -25.6489 41.1717 99 -25.2000 39.7000 TC 35 -25.2195 39.6807 2 8 191
1956019S13059 1956 8 SI MM NOT_NAMED 1956-01-30 03:00:00 TS -25.7127 39.9557 main 401 401 P____P___PP___ SH121956 -25.5775 39.5298 -1 -26.1032 41.2451 99 -25.5775 39.5298 TC 35 -25.5927 39.5182 2 8 196
1956019S13059 1956 8 SI MM NOT_NAMED 1956-01-30 06:00:00 TS -26.1250 39.8000 reunion main 435 435 O____O___OO___ jtwc_sh SH121956 -26.0000 39.3000 -1 -26.5000 41.3000 99 9.90000 -26.0000 39.3000 TC 35 -26.0000 39.3000 2 9 200
1956019S13059 1956 8 SI MM NOT_NAMED 1956-01-30 09:00:00 TS -26.5681 39.6037 main 475 475 P____P___PP___ SH121956 -26.4849 39.0298 -1 -26.8263 41.3312 99 -26.4849 39.0298 TC 35 -26.4762 39.0241 2 10 204
1956019S13059 1956 8 SI MM NOT_NAMED 1956-01-30 12:00:00 TS -27.0180 39.3576 main 506 498 O____P___OP___ jtwc_sh SH121956 -27.0000 38.7000 -1 -27.0870 41.3401 99 -27.0000 38.7000 TC 35 -26.9849 38.6903 2 10 208
1956019S13059 1956 8 SI MM NOT_NAMED 1956-01-30 15:00:00 TS -27.4519 39.0714 main 514 505 P____P___PP___ SH121956 -27.5074 38.3223 -1 -27.2916 41.3298 99 -27.5074 38.3223 TC 35 -27.5011 38.3113 2 10 212
1956019S13059 1956 8 SI MM NOT_NAMED 1956-01-30 18:00:00 TS -27.8623 38.7508 main 521 514 O____P___OO___ jtwc_sh SH121956 -28.0000 37.9000 -1 -27.4494 41.3033 99 -28.0000 37.9000 TC 35 -28.0000 37.9000 2 10 216
1956019S13059 1956 8 SI MM NOT_NAMED 1956-01-30 21:00:00 TS -28.2406 38.4117 main 519 519 P____P___PP___ SH121956 -28.4649 37.4572 -1 -27.5698 41.2638 99 -28.4649 37.4572 TC 35 -28.4627 37.4685 2 10 220
1956019S13059 1956 8 SI MM NOT_NAMED 1956-01-31 00:00:00 TS -28.5889 38.0592 main 536 513 O____P___OP___ jtwc_sh SH121956 -28.9000 37.0000 -1 -27.6621 41.2147 99 -28.9000 37.0000 TC 35 -28.8936 37.0221 2 9 223
1956019S13059 1956 8 SI MM NOT_NAMED 1956-01-31 03:00:00 TS -28.9135 37.7050 main 513 490 P____P___PP___ SH121956 -29.3078 36.5481 -1 -27.7357 41.1590 99 -29.3078 36.5481 TC 35 -29.3027 36.5647 2 9 224
1956019S13059 1956 8 SI MM NOT_NAMED 1956-01-31 06:00:00 TS -29.2250 37.3500 reunion main 492 O____O___OO___ jtwc_sh SH121956 -29.7000 36.1000 -1 -27.8000 41.1000 99 9.90000 -29.7000 36.1000 TC 35 -29.7000 36.1000 2 9 225

About IBTrACS Database

This database is a web-friendly format of International Best Track Archive for Climate Stewardship (IBTrACS), a global best track data archive curated by NOAA dating back to 1842.

Updated: 2021-10-08